sensor_id;sensor_type;location;lat;lon;timestamp;P1;durP1;ratioP1;P2;durP2;ratioP2
8100;SDS011;4093;53.470;9.832;2022-11-20T00:00:54;10.13;;;6.77;;
8100;SDS011;4093;53.470;9.832;2022-11-20T00:03:22;8.53;;;5.77;;
8100;SDS011;4093;53.470;9.832;2022-11-20T00:05:50;9.37;;;5.90;;
8100;SDS011;4093;53.470;9.832;2022-11-20T00:08:18;9.83;;;6.20;;
8100;SDS011;4093;53.470;9.832;2022-11-20T00:10:47;5.87;;;5.03;;
8100;SDS011;4093;53.470;9.832;2022-11-20T00:13:15;7.03;;;5.50;;
8100;SDS011;4093;53.470;9.832;2022-11-20T00:15:42;7.90;;;5.57;;
8100;SDS011;4093;53.470;9.832;2022-11-20T00:18:10;7.17;;;5.83;;
8100;SDS011;4093;53.470;9.832;2022-11-20T00:20:38;11.43;;;6.67;;
8100;SDS011;4093;53.470;9.832;2022-11-20T00:23:06;8.53;;;6.23;;
8100;SDS011;4093;53.470;9.832;2022-11-20T00:25:34;7.40;;;5.70;;
8100;SDS011;4093;53.470;9.832;2022-11-20T00:28:03;9.70;;;5.80;;
8100;SDS011;4093;53.470;9.832;2022-11-20T00:30:31;7.17;;;5.73;;
8100;SDS011;4093;53.470;9.832;2022-11-20T00:32:58;7.07;;;5.87;;
8100;SDS011;4093;53.470;9.832;2022-11-20T00:35:26;7.73;;;5.70;;
8100;SDS011;4093;53.470;9.832;2022-11-20T00:37:54;7.53;;;5.63;;
8100;SDS011;4093;53.470;9.832;2022-11-20T00:40:22;8.30;;;5.43;;
8100;SDS011;4093;53.470;9.832;2022-11-20T00:42:50;7.97;;;5.73;;
8100;SDS011;4093;53.470;9.832;2022-11-20T00:45:19;8.67;;;6.03;;
8100;SDS011;4093;53.470;9.832;2022-11-20T00:47:47;7.73;;;6.40;;
8100;SDS011;4093;53.470;9.832;2022-11-20T00:50:15;8.23;;;6.17;;
8100;SDS011;4093;53.470;9.832;2022-11-20T00:52:43;7.80;;;5.53;;
8100;SDS011;4093;53.470;9.832;2022-11-20T00:55:11;8.70;;;6.00;;
8100;SDS011;4093;53.470;9.832;2022-11-20T00:57:39;6.83;;;5.57;;
8100;SDS011;4093;53.470;9.832;2022-11-20T01:00:07;6.73;;;6.03;;
8100;SDS011;4093;53.470;9.832;2022-11-20T01:02:37;7.37;;;5.77;;
8100;SDS011;4093;53.470;9.832;2022-11-20T01:05:04;7.47;;;6.20;;
8100;SDS011;4093;53.470;9.832;2022-11-20T01:07:33;7.47;;;6.07;;
8100;SDS011;4093;53.470;9.832;2022-11-20T01:10:00;10.53;;;6.33;;
8100;SDS011;4093;53.470;9.832;2022-11-20T01:12:28;8.13;;;6.07;;
8100;SDS011;4093;53.470;9.832;2022-11-20T01:14:56;10.07;;;6.60;;
8100;SDS011;4093;53.470;9.832;2022-11-20T01:17:24;8.03;;;5.83;;
8100;SDS011;4093;53.470;9.832;2022-11-20T01:19:53;9.17;;;6.50;;
8100;SDS011;4093;53.470;9.832;2022-11-20T01:22:20;7.90;;;6.33;;
8100;SDS011;4093;53.470;9.832;2022-11-20T01:27:56;7.50;;;5.50;;
8100;SDS011;4093;53.470;9.832;2022-11-20T01:30:24;6.17;;;5.50;;
8100;SDS011;4093;53.470;9.832;2022-11-20T01:32:52;6.53;;;5.50;;
8100;SDS011;4093;53.470;9.832;2022-11-20T01:35:23;6.50;;;5.23;;
8100;SDS011;4093;53.470;9.832;2022-11-20T01:37:51;9.57;;;5.70;;
8100;SDS011;4093;53.470;9.832;2022-11-20T01:40:19;7.63;;;5.50;;
8100;SDS011;4093;53.470;9.832;2022-11-20T01:42:47;7.50;;;5.83;;
8100;SDS011;4093;53.470;9.832;2022-11-20T01:45:55;5.80;;;5.20;;
8100;SDS011;4093;53.470;9.832;2022-11-20T01:48:27;9.57;;;4.80;;
8100;SDS011;4093;53.470;9.832;2022-11-20T01:51:01;8.27;;;5.23;;
8100;SDS011;4093;53.470;9.832;2022-11-20T01:53:32;8.83;;;5.43;;
8100;SDS011;4093;53.470;9.832;2022-11-20T01:56:04;8.03;;;5.70;;
8100;SDS011;4093;53.470;9.832;2022-11-20T01:58:37;6.73;;;5.20;;
8100;SDS011;4093;53.470;9.832;2022-11-20T02:01:09;7.97;;;5.10;;
8100;SDS011;4093;53.470;9.832;2022-11-20T02:03:38;8.93;;;4.97;;
8100;SDS011;4093;53.470;9.832;2022-11-20T02:06:10;7.23;;;5.70;;
8100;SDS011;4093;53.470;9.832;2022-11-20T02:08:42;7.37;;;5.40;;
8100;SDS011;4093;53.470;9.832;2022-11-20T02:11:10;9.50;;;5.90;;
8100;SDS011;4093;53.470;9.832;2022-11-20T02:13:39;7.97;;;5.70;;
8100;SDS011;4093;53.470;9.832;2022-11-20T02:16:14;7.57;;;5.40;;
8100;SDS011;4093;53.470;9.832;2022-11-20T02:18:44;6.53;;;5.10;;
8100;SDS011;4093;53.470;9.832;2022-11-20T02:21:17;7.63;;;5.10;;
8100;SDS011;4093;53.470;9.832;2022-11-20T02:23:55;7.83;;;5.20;;
8100;SDS011;4093;53.470;9.832;2022-11-20T02:26:44;6.83;;;4.83;;
8100;SDS011;4093;53.470;9.832;2022-11-20T02:29:17;5.20;;;4.70;;
8100;SDS011;4093;53.470;9.832;2022-11-20T02:31:50;7.47;;;4.90;;
8100;SDS011;4093;53.470;9.832;2022-11-20T02:34:21;6.37;;;4.90;;
8100;SDS011;4093;53.470;9.832;2022-11-20T02:36:48;7.20;;;5.10;;
8100;SDS011;4093;53.470;9.832;2022-11-20T02:39:20;8.57;;;5.07;;
8100;SDS011;4093;53.470;9.832;2022-11-20T02:41:52;6.80;;;4.87;;
8100;SDS011;4093;53.470;9.832;2022-11-20T02:44:20;6.60;;;4.70;;
8100;SDS011;4093;53.470;9.832;2022-11-20T02:46:48;6.47;;;5.00;;
8100;SDS011;4093;53.470;9.832;2022-11-20T02:49:16;7.37;;;4.93;;
8100;SDS011;4093;53.470;9.832;2022-11-20T02:51:44;6.90;;;5.17;;
8100;SDS011;4093;53.470;9.832;2022-11-20T02:54:12;7.73;;;5.30;;
8100;SDS011;4093;53.470;9.832;2022-11-20T02:56:41;5.50;;;4.43;;
8100;SDS011;4093;53.470;9.832;2022-11-20T02:59:09;6.77;;;5.10;;
8100;SDS011;4093;53.470;9.832;2022-11-20T03:01:37;7.73;;;5.20;;
8100;SDS011;4093;53.470;9.832;2022-11-20T03:04:05;6.60;;;5.07;;
8100;SDS011;4093;53.470;9.832;2022-11-20T03:06:33;5.67;;;5.07;;
8100;SDS011;4093;53.470;9.832;2022-11-20T03:09:01;6.23;;;5.30;;
8100;SDS011;4093;53.470;9.832;2022-11-20T03:11:28;4.80;;;4.23;;
8100;SDS011;4093;53.470;9.832;2022-11-20T03:13:58;6.77;;;5.23;;
8100;SDS011;4093;53.470;9.832;2022-11-20T03:16:30;5.63;;;4.70;;
8100;SDS011;4093;53.470;9.832;2022-11-20T03:18:59;6.27;;;5.07;;
8100;SDS011;4093;53.470;9.832;2022-11-20T03:21:27;6.67;;;4.67;;
8100;SDS011;4093;53.470;9.832;2022-11-20T03:23:55;6.20;;;4.80;;
8100;SDS011;4093;53.470;9.832;2022-11-20T03:26:23;7.03;;;5.17;;
8100;SDS011;4093;53.470;9.832;2022-11-20T03:28:53;5.43;;;4.90;;
8100;SDS011;4093;53.470;9.832;2022-11-20T03:31:24;7.00;;;5.50;;
8100;SDS011;4093;53.470;9.832;2022-11-20T03:33:53;4.67;;;4.20;;
8100;SDS011;4093;53.470;9.832;2022-11-20T03:36:20;7.90;;;5.17;;
8100;SDS011;4093;53.470;9.832;2022-11-20T03:38:48;6.57;;;4.70;;
8100;SDS011;4093;53.470;9.832;2022-11-20T03:41:17;6.77;;;5.23;;
8100;SDS011;4093;53.470;9.832;2022-11-20T03:43:49;8.50;;;4.57;;
8100;SDS011;4093;53.470;9.832;2022-11-20T03:46:17;8.67;;;5.20;;
8100;SDS011;4093;53.470;9.832;2022-11-20T03:48:47;5.60;;;4.80;;
8100;SDS011;4093;53.470;9.832;2022-11-20T03:51:17;5.53;;;4.97;;
8100;SDS011;4093;53.470;9.832;2022-11-20T03:53:46;9.27;;;5.47;;
8100;SDS011;4093;53.470;9.832;2022-11-20T03:56:16;8.27;;;5.13;;
8100;SDS011;4093;53.470;9.832;2022-11-20T03:58:45;5.43;;;4.57;;
8100;SDS011;4093;53.470;9.832;2022-11-20T04:01:14;6.47;;;5.40;;
8100;SDS011;4093;53.470;9.832;2022-11-20T04:03:43;5.73;;;5.10;;
8100;SDS011;4093;53.470;9.832;2022-11-20T04:06:14;5.57;;;4.63;;
8100;SDS011;4093;53.470;9.832;2022-11-20T04:08:43;6.73;;;5.30;;
8100;SDS011;4093;53.470;9.832;2022-11-20T04:11:19;7.37;;;5.93;;
8100;SDS011;4093;53.470;9.832;2022-11-20T04:13:49;8.53;;;6.00;;
8100;SDS011;4093;53.470;9.832;2022-11-20T04:16:18;7.07;;;5.47;;
8100;SDS011;4093;53.470;9.832;2022-11-20T04:18:47;9.23;;;6.20;;
8100;SDS011;4093;53.470;9.832;2022-11-20T04:21:19;8.77;;;6.07;;
8100;SDS011;4093;53.470;9.832;2022-11-20T04:23:47;8.37;;;6.27;;
8100;SDS011;4093;53.470;9.832;2022-11-20T04:26:15;6.87;;;5.67;;
8100;SDS011;4093;53.470;9.832;2022-11-20T04:28:43;7.23;;;5.40;;
8100;SDS011;4093;53.470;9.832;2022-11-20T04:31:12;6.73;;;5.60;;
8100;SDS011;4093;53.470;9.832;2022-11-20T04:33:41;5.60;;;5.03;;
8100;SDS011;4093;53.470;9.832;2022-11-20T04:36:10;8.10;;;6.07;;
8100;SDS011;4093;53.470;9.832;2022-11-20T04:38:41;7.43;;;5.87;;
8100;SDS011;4093;53.470;9.832;2022-11-20T04:41:11;10.33;;;6.70;;
8100;SDS011;4093;53.470;9.832;2022-11-20T04:43:45;12.43;;;7.63;;
8100;SDS011;4093;53.470;9.832;2022-11-20T04:46:13;10.57;;;7.17;;
8100;SDS011;4093;53.470;9.832;2022-11-20T04:48:41;10.30;;;7.23;;
8100;SDS011;4093;53.470;9.832;2022-11-20T04:51:09;9.90;;;7.50;;
8100;SDS011;4093;53.470;9.832;2022-11-20T04:53:37;10.43;;;7.37;;
8100;SDS011;4093;53.470;9.832;2022-11-20T04:56:07;8.60;;;7.00;;
8100;SDS011;4093;53.470;9.832;2022-11-20T04:58:36;10.07;;;7.43;;
8100;SDS011;4093;53.470;9.832;2022-11-20T05:01:05;10.53;;;7.07;;
8100;SDS011;4093;53.470;9.832;2022-11-20T05:03:34;8.53;;;6.40;;
8100;SDS011;4093;53.470;9.832;2022-11-20T05:06:08;7.97;;;6.43;;
8100;SDS011;4093;53.470;9.832;2022-11-20T05:08:37;7.17;;;6.27;;
8100;SDS011;4093;53.470;9.832;2022-11-20T05:11:07;7.67;;;5.83;;
8100;SDS011;4093;53.470;9.832;2022-11-20T05:13:35;7.03;;;5.77;;
8100;SDS011;4093;53.470;9.832;2022-11-20T05:16:05;8.97;;;5.93;;
8100;SDS011;4093;53.470;9.832;2022-11-20T05:18:35;7.73;;;6.27;;
8100;SDS011;4093;53.470;9.832;2022-11-20T05:21:03;7.70;;;6.30;;
8100;SDS011;4093;53.470;9.832;2022-11-20T05:23:32;7.63;;;5.63;;
8100;SDS011;4093;53.470;9.832;2022-11-20T05:26:00;9.10;;;6.33;;
8100;SDS011;4093;53.470;9.832;2022-11-20T05:28:30;9.20;;;7.13;;
8100;SDS011;4093;53.470;9.832;2022-11-20T05:31:03;8.40;;;6.67;;
8100;SDS011;4093;53.470;9.832;2022-11-20T05:33:32;11.50;;;7.83;;
8100;SDS011;4093;53.470;9.832;2022-11-20T05:36:00;8.03;;;6.83;;
8100;SDS011;4093;53.470;9.832;2022-11-20T05:38:29;8.87;;;7.10;;
8100;SDS011;4093;53.470;9.832;2022-11-20T05:41:02;10.47;;;7.30;;
8100;SDS011;4093;53.470;9.832;2022-11-20T05:43:32;8.20;;;6.93;;
8100;SDS011;4093;53.470;9.832;2022-11-20T05:46:01;11.73;;;7.70;;
8100;SDS011;4093;53.470;9.832;2022-11-20T05:48:29;9.17;;;7.53;;
8100;SDS011;4093;53.470;9.832;2022-11-20T05:50:58;10.13;;;7.70;;
8100;SDS011;4093;53.470;9.832;2022-11-20T05:53:26;9.00;;;7.53;;
8100;SDS011;4093;53.470;9.832;2022-11-20T05:55:58;8.83;;;7.63;;
8100;SDS011;4093;53.470;9.832;2022-11-20T05:58:26;9.20;;;7.70;;
8100;SDS011;4093;53.470;9.832;2022-11-20T06:00:58;9.23;;;7.30;;
8100;SDS011;4093;53.470;9.832;2022-11-20T06:03:30;10.20;;;7.30;;
8100;SDS011;4093;53.470;9.832;2022-11-20T06:05:58;9.67;;;7.07;;
8100;SDS011;4093;53.470;9.832;2022-11-20T06:08:26;10.10;;;7.13;;
8100;SDS011;4093;53.470;9.832;2022-11-20T06:10:55;10.20;;;7.60;;
8100;SDS011;4093;53.470;9.832;2022-11-20T06:13:25;9.70;;;6.80;;
8100;SDS011;4093;53.470;9.832;2022-11-20T06:15:52;8.77;;;6.87;;
8100;SDS011;4093;53.470;9.832;2022-11-20T06:18:22;8.80;;;7.27;;
8100;SDS011;4093;53.470;9.832;2022-11-20T06:20:50;9.00;;;7.47;;
8100;SDS011;4093;53.470;9.832;2022-11-20T06:23:27;10.90;;;7.80;;
8100;SDS011;4093;53.470;9.832;2022-11-20T06:25:56;12.00;;;8.80;;
8100;SDS011;4093;53.470;9.832;2022-11-20T06:28:28;12.03;;;8.47;;
8100;SDS011;4093;53.470;9.832;2022-11-20T06:30:57;13.17;;;8.77;;
8100;SDS011;4093;53.470;9.832;2022-11-20T06:33:26;13.00;;;8.73;;
8100;SDS011;4093;53.470;9.832;2022-11-20T06:35:55;11.00;;;8.60;;
8100;SDS011;4093;53.470;9.832;2022-11-20T06:38:28;12.87;;;9.07;;
8100;SDS011;4093;53.470;9.832;2022-11-20T06:40:57;11.83;;;8.57;;
8100;SDS011;4093;53.470;9.832;2022-11-20T06:43:26;11.50;;;9.53;;
8100;SDS011;4093;53.470;9.832;2022-11-20T06:45:56;12.00;;;9.27;;
8100;SDS011;4093;53.470;9.832;2022-11-20T06:48:27;10.93;;;9.13;;
8100;SDS011;4093;53.470;9.832;2022-11-20T06:50:55;13.27;;;9.73;;
8100;SDS011;4093;53.470;9.832;2022-11-20T06:53:24;11.10;;;9.17;;
8100;SDS011;4093;53.470;9.832;2022-11-20T06:55:52;14.33;;;9.17;;
8100;SDS011;4093;53.470;9.832;2022-11-20T06:58:25;15.90;;;10.23;;
8100;SDS011;4093;53.470;9.832;2022-11-20T07:00:57;12.33;;;9.20;;
8100;SDS011;4093;53.470;9.832;2022-11-20T07:03:27;11.73;;;9.87;;
8100;SDS011;4093;53.470;9.832;2022-11-20T07:05:55;12.90;;;9.63;;
8100;SDS011;4093;53.470;9.832;2022-11-20T07:08:23;12.37;;;9.83;;
8100;SDS011;4093;53.470;9.832;2022-11-20T07:10:52;13.77;;;9.93;;
8100;SDS011;4093;53.470;9.832;2022-11-20T07:13:20;12.13;;;9.27;;
8100;SDS011;4093;53.470;9.832;2022-11-20T07:15:47;12.43;;;9.83;;
8100;SDS011;4093;53.470;9.832;2022-11-20T07:18:15;15.93;;;10.00;;
8100;SDS011;4093;53.470;9.832;2022-11-20T07:20:44;13.23;;;9.57;;
8100;SDS011;4093;53.470;9.832;2022-11-20T07:23:12;13.67;;;10.10;;
8100;SDS011;4093;53.470;9.832;2022-11-20T07:25:40;13.03;;;9.90;;
8100;SDS011;4093;53.470;9.832;2022-11-20T07:28:08;12.23;;;8.97;;
8100;SDS011;4093;53.470;9.832;2022-11-20T07:30:37;14.40;;;9.33;;
8100;SDS011;4093;53.470;9.832;2022-11-20T07:33:05;15.20;;;9.87;;
8100;SDS011;4093;53.470;9.832;2022-11-20T07:35:33;16.03;;;11.13;;
8100;SDS011;4093;53.470;9.832;2022-11-20T07:38:04;12.03;;;9.73;;
8100;SDS011;4093;53.470;9.832;2022-11-20T07:40:31;14.03;;;9.70;;
8100;SDS011;4093;53.470;9.832;2022-11-20T07:42:59;10.70;;;9.20;;
8100;SDS011;4093;53.470;9.832;2022-11-20T07:45:27;12.67;;;10.23;;
8100;SDS011;4093;53.470;9.832;2022-11-20T07:47:55;14.07;;;10.33;;
8100;SDS011;4093;53.470;9.832;2022-11-20T07:50:23;14.93;;;10.70;;
8100;SDS011;4093;53.470;9.832;2022-11-20T07:52:51;12.67;;;9.67;;
8100;SDS011;4093;53.470;9.832;2022-11-20T07:55:20;13.57;;;9.83;;
8100;SDS011;4093;53.470;9.832;2022-11-20T07:57:53;13.57;;;9.43;;
8100;SDS011;4093;53.470;9.832;2022-11-20T08:00:24;12.00;;;9.63;;
8100;SDS011;4093;53.470;9.832;2022-11-20T08:02:53;12.87;;;9.53;;
8100;SDS011;4093;53.470;9.832;2022-11-20T08:05:21;13.20;;;10.10;;
8100;SDS011;4093;53.470;9.832;2022-11-20T08:07:49;12.27;;;8.60;;
8100;SDS011;4093;53.470;9.832;2022-11-20T08:10:17;12.23;;;8.70;;
8100;SDS011;4093;53.470;9.832;2022-11-20T08:12:48;13.93;;;10.57;;
8100;SDS011;4093;53.470;9.832;2022-11-20T08:15:47;13.60;;;9.57;;
8100;SDS011;4093;53.470;9.832;2022-11-20T08:18:16;12.93;;;9.67;;
8100;SDS011;4093;53.470;9.832;2022-11-20T08:21:01;12.40;;;9.50;;
8100;SDS011;4093;53.470;9.832;2022-11-20T08:23:29;12.57;;;9.40;;
8100;SDS011;4093;53.470;9.832;2022-11-20T08:25:57;11.37;;;8.83;;
8100;SDS011;4093;53.470;9.832;2022-11-20T08:28:26;11.73;;;9.27;;
8100;SDS011;4093;53.470;9.832;2022-11-20T08:30:57;12.73;;;9.03;;
8100;SDS011;4093;53.470;9.832;2022-11-20T08:33:26;9.80;;;8.53;;
8100;SDS011;4093;53.470;9.832;2022-11-20T08:35:57;11.47;;;8.17;;
8100;SDS011;4093;53.470;9.832;2022-11-20T08:38:27;9.00;;;7.30;;
8100;SDS011;4093;53.470;9.832;2022-11-20T08:40:56;9.50;;;7.53;;
8100;SDS011;4093;53.470;9.832;2022-11-20T08:43:43;10.27;;;7.57;;
8100;SDS011;4093;53.470;9.832;2022-11-20T08:46:11;10.57;;;7.57;;
8100;SDS011;4093;53.470;9.832;2022-11-20T08:48:39;9.63;;;7.50;;
8100;SDS011;4093;53.470;9.832;2022-11-20T08:51:07;8.70;;;6.83;;
8100;SDS011;4093;53.470;9.832;2022-11-20T08:53:35;10.37;;;7.27;;
8100;SDS011;4093;53.470;9.832;2022-11-20T08:56:03;9.30;;;6.73;;
8100;SDS011;4093;53.470;9.832;2022-11-20T08:58:32;9.40;;;6.40;;
8100;SDS011;4093;53.470;9.832;2022-11-20T09:01:22;8.40;;;6.83;;
8100;SDS011;4093;53.470;9.832;2022-11-20T09:03:50;9.00;;;6.47;;
8100;SDS011;4093;53.470;9.832;2022-11-20T09:06:18;9.07;;;6.80;;
8100;SDS011;4093;53.470;9.832;2022-11-20T09:08:46;8.90;;;6.77;;
8100;SDS011;4093;53.470;9.832;2022-11-20T09:11:14;8.93;;;6.40;;
8100;SDS011;4093;53.470;9.832;2022-11-20T09:13:42;9.90;;;6.23;;
8100;SDS011;4093;53.470;9.832;2022-11-20T09:16:09;7.23;;;6.43;;
8100;SDS011;4093;53.470;9.832;2022-11-20T09:18:39;8.77;;;6.30;;
8100;SDS011;4093;53.470;9.832;2022-11-20T09:21:09;7.33;;;5.97;;
8100;SDS011;4093;53.470;9.832;2022-11-20T09:23:38;6.90;;;6.20;;
8100;SDS011;4093;53.470;9.832;2022-11-20T09:26:07;6.80;;;5.43;;
8100;SDS011;4093;53.470;9.832;2022-11-20T09:28:37;8.07;;;5.73;;
8100;SDS011;4093;53.470;9.832;2022-11-20T09:31:05;6.63;;;5.77;;
8100;SDS011;4093;53.470;9.832;2022-11-20T09:33:34;8.07;;;6.33;;
8100;SDS011;4093;53.470;9.832;2022-11-20T09:36:04;10.30;;;6.23;;
8100;SDS011;4093;53.470;9.832;2022-11-20T09:38:32;8.13;;;6.10;;
8100;SDS011;4093;53.470;9.832;2022-11-20T09:41:04;7.67;;;6.27;;
8100;SDS011;4093;53.470;9.832;2022-11-20T09:43:49;8.17;;;6.40;;
8100;SDS011;4093;53.470;9.832;2022-11-20T09:46:27;8.07;;;6.70;;
8100;SDS011;4093;53.470;9.832;2022-11-20T09:49:04;8.57;;;6.70;;
8100;SDS011;4093;53.470;9.832;2022-11-20T09:51:49;8.20;;;6.20;;
8100;SDS011;4093;53.470;9.832;2022-11-20T09:54:26;8.53;;;6.33;;
8100;SDS011;4093;53.470;9.832;2022-11-20T09:56:58;10.60;;;6.87;;
8100;SDS011;4093;53.470;9.832;2022-11-20T09:59:34;7.67;;;6.70;;
8100;SDS011;4093;53.470;9.832;2022-11-20T10:04:57;8.03;;;5.90;;
8100;SDS011;4093;53.470;9.832;2022-11-20T10:07:32;8.10;;;6.40;;
8100;SDS011;4093;53.470;9.832;2022-11-20T10:10:13;6.93;;;5.87;;
8100;SDS011;4093;53.470;9.832;2022-11-20T10:12:46;7.67;;;5.90;;
8100;SDS011;4093;53.470;9.832;2022-11-20T10:15:28;7.87;;;5.77;;
8100;SDS011;4093;53.470;9.832;2022-11-20T10:18:09;7.17;;;5.37;;
8100;SDS011;4093;53.470;9.832;2022-11-20T10:20:46;7.93;;;6.77;;
8100;SDS011;4093;53.470;9.832;2022-11-20T10:23:25;7.43;;;6.13;;
8100;SDS011;4093;53.470;9.832;2022-11-20T10:26:11;7.80;;;5.83;;
8100;SDS011;4093;53.470;9.832;2022-11-20T10:28:48;7.13;;;6.17;;
8100;SDS011;4093;53.470;9.832;2022-11-20T10:31:33;7.93;;;6.10;;
8100;SDS011;4093;53.470;9.832;2022-11-20T10:34:06;9.23;;;6.70;;
8100;SDS011;4093;53.470;9.832;2022-11-20T10:36:49;6.30;;;5.70;;
8100;SDS011;4093;53.470;9.832;2022-11-20T10:39:25;6.40;;;5.80;;
8100;SDS011;4093;53.470;9.832;2022-11-20T10:42:00;6.77;;;5.57;;
8100;SDS011;4093;53.470;9.832;2022-11-20T10:44:28;7.57;;;5.43;;
8100;SDS011;4093;53.470;9.832;2022-11-20T10:47:19;7.63;;;5.27;;
8100;SDS011;4093;53.470;9.832;2022-11-20T10:49:48;5.53;;;4.80;;
8100;SDS011;4093;53.470;9.832;2022-11-20T10:52:20;5.70;;;5.10;;
8100;SDS011;4093;53.470;9.832;2022-11-20T10:55:02;6.00;;;5.40;;
8100;SDS011;4093;53.470;9.832;2022-11-20T10:57:43;5.93;;;5.00;;
8100;SDS011;4093;53.470;9.832;2022-11-20T11:00:20;6.33;;;4.70;;
8100;SDS011;4093;53.470;9.832;2022-11-20T11:02:48;6.53;;;4.50;;
8100;SDS011;4093;53.470;9.832;2022-11-20T11:05:21;5.53;;;5.03;;
8100;SDS011;4093;53.470;9.832;2022-11-20T11:07:59;5.83;;;5.17;;
8100;SDS011;4093;53.470;9.832;2022-11-20T11:10:31;6.83;;;5.03;;
8100;SDS011;4093;53.470;9.832;2022-11-20T11:13:03;5.60;;;4.57;;
8100;SDS011;4093;53.470;9.832;2022-11-20T11:15:37;4.87;;;4.40;;
8100;SDS011;4093;53.470;9.832;2022-11-20T11:18:07;4.97;;;4.50;;
8100;SDS011;4093;53.470;9.832;2022-11-20T11:20:36;6.03;;;4.00;;
8100;SDS011;4093;53.470;9.832;2022-11-20T11:23:04;4.20;;;3.80;;
8100;SDS011;4093;53.470;9.832;2022-11-20T11:25:34;4.47;;;4.00;;
8100;SDS011;4093;53.470;9.832;2022-11-20T11:28:03;4.07;;;3.63;;
8100;SDS011;4093;53.470;9.832;2022-11-20T11:30:41;4.27;;;3.87;;
8100;SDS011;4093;53.470;9.832;2022-11-20T11:33:11;4.70;;;4.20;;
8100;SDS011;4093;53.470;9.832;2022-11-20T11:35:46;4.27;;;3.87;;
8100;SDS011;4093;53.470;9.832;2022-11-20T11:38:19;4.40;;;4.00;;
8100;SDS011;4093;53.470;9.832;2022-11-20T11:40:52;4.80;;;4.30;;
8100;SDS011;4093;53.470;9.832;2022-11-20T11:43:21;4.90;;;4.40;;
8100;SDS011;4093;53.470;9.832;2022-11-20T11:46:13;5.13;;;4.63;;
8100;SDS011;4093;53.470;9.832;2022-11-20T11:48:55;5.27;;;4.77;;
8100;SDS011;4093;53.470;9.832;2022-11-20T11:51:26;5.47;;;4.70;;
8100;SDS011;4093;53.470;9.832;2022-11-20T11:54:00;5.57;;;4.63;;
8100;SDS011;4093;53.470;9.832;2022-11-20T11:56:32;5.37;;;4.87;;
8100;SDS011;4093;53.470;9.832;2022-11-20T11:59:00;7.90;;;5.17;;
8100;SDS011;4093;53.470;9.832;2022-11-20T12:01:37;5.07;;;4.57;;
8100;SDS011;4093;53.470;9.832;2022-11-20T12:04:13;4.83;;;4.33;;
8100;SDS011;4093;53.470;9.832;2022-11-20T12:06:48;4.50;;;4.10;;
8100;SDS011;4093;53.470;9.832;2022-11-20T12:09:21;5.77;;;5.27;;
8100;SDS011;4093;53.470;9.832;2022-11-20T12:11:58;7.27;;;5.33;;
8100;SDS011;4093;53.470;9.832;2022-11-20T12:14:33;5.50;;;5.00;;
8100;SDS011;4093;53.470;9.832;2022-11-20T12:17:04;5.13;;;4.67;;
8100;SDS011;4093;53.470;9.832;2022-11-20T12:19:33;5.40;;;4.90;;
8100;SDS011;4093;53.470;9.832;2022-11-20T12:22:02;5.47;;;4.77;;
8100;SDS011;4093;53.470;9.832;2022-11-20T12:24:42;6.30;;;4.87;;
8100;SDS011;4093;53.470;9.832;2022-11-20T12:27:31;6.67;;;5.17;;
8100;SDS011;4093;53.470;9.832;2022-11-20T12:30:11;5.30;;;4.80;;
8100;SDS011;4093;53.470;9.832;2022-11-20T12:32:54;5.17;;;4.63;;
8100;SDS011;4093;53.470;9.832;2022-11-20T12:35:44;6.27;;;5.40;;
8100;SDS011;4093;53.470;9.832;2022-11-20T12:38:34;5.83;;;4.47;;
8100;SDS011;4093;53.470;9.832;2022-11-20T12:41:11;5.30;;;4.80;;
8100;SDS011;4093;53.470;9.832;2022-11-20T12:44:10;5.60;;;5.00;;
8100;SDS011;4093;53.470;9.832;2022-11-20T12:47:16;8.00;;;5.20;;
8100;SDS011;4093;53.470;9.832;2022-11-20T12:49:53;5.67;;;4.80;;
8100;SDS011;4093;53.470;9.832;2022-11-20T12:52:34;4.97;;;4.47;;
8100;SDS011;4093;53.470;9.832;2022-11-20T12:55:13;5.77;;;4.67;;
8100;SDS011;4093;53.470;9.832;2022-11-20T12:57:50;7.27;;;5.17;;
8100;SDS011;4093;53.470;9.832;2022-11-20T13:00:22;5.33;;;4.67;;
8100;SDS011;4093;53.470;9.832;2022-11-20T13:03:06;4.50;;;4.10;;
8100;SDS011;4093;53.470;9.832;2022-11-20T13:05:45;5.33;;;4.30;;
8100;SDS011;4093;53.470;9.832;2022-11-20T13:08:21;4.30;;;3.90;;
8100;SDS011;4093;53.470;9.832;2022-11-20T13:10:52;4.37;;;3.97;;
8100;SDS011;4093;53.470;9.832;2022-11-20T13:13:29;3.87;;;3.57;;
8100;SDS011;4093;53.470;9.832;2022-11-20T13:16:06;4.23;;;3.83;;
8100;SDS011;4093;53.470;9.832;2022-11-20T13:18:40;4.40;;;3.80;;
8100;SDS011;4093;53.470;9.832;2022-11-20T13:21:17;5.67;;;4.13;;
8100;SDS011;4093;53.470;9.832;2022-11-20T13:23:47;4.40;;;4.00;;
8100;SDS011;4093;53.470;9.832;2022-11-20T13:26:16;4.77;;;3.87;;
8100;SDS011;4093;53.470;9.832;2022-11-20T13:28:47;3.97;;;3.67;;
8100;SDS011;4093;53.470;9.832;2022-11-20T13:31:31;4.70;;;4.20;;
8100;SDS011;4093;53.470;9.832;2022-11-20T13:34:02;4.60;;;4.20;;
8100;SDS011;4093;53.470;9.832;2022-11-20T13:36:33;4.10;;;3.70;;
8100;SDS011;4093;53.470;9.832;2022-11-20T13:39:02;4.10;;;3.80;;
8100;SDS011;4093;53.470;9.832;2022-11-20T13:41:31;4.23;;;3.83;;
8100;SDS011;4093;53.470;9.832;2022-11-20T13:44:06;4.10;;;3.70;;
8100;SDS011;4093;53.470;9.832;2022-11-20T13:46:41;4.53;;;4.03;;
8100;SDS011;4093;53.470;9.832;2022-11-20T13:49:17;5.40;;;4.00;;
8100;SDS011;4093;53.470;9.832;2022-11-20T13:51:55;4.50;;;3.80;;
8100;SDS011;4093;53.470;9.832;2022-11-20T13:54:44;4.40;;;3.93;;
8100;SDS011;4093;53.470;9.832;2022-11-20T13:57:39;5.27;;;4.23;;
8100;SDS011;4093;53.470;9.832;2022-11-20T14:00:16;5.63;;;3.80;;
8100;SDS011;4093;53.470;9.832;2022-11-20T14:02:49;4.77;;;4.23;;
8100;SDS011;4093;53.470;9.832;2022-11-20T14:05:27;4.00;;;3.70;;
8100;SDS011;4093;53.470;9.832;2022-11-20T14:07:58;4.43;;;3.70;;
8100;SDS011;4093;53.470;9.832;2022-11-20T14:10:26;5.40;;;4.20;;
8100;SDS011;4093;53.470;9.832;2022-11-20T14:12:57;4.67;;;4.13;;
8100;SDS011;4093;53.470;9.832;2022-11-20T14:15:27;4.10;;;3.70;;
8100;SDS011;4093;53.470;9.832;2022-11-20T14:17:58;3.67;;;3.37;;
8100;SDS011;4093;53.470;9.832;2022-11-20T14:20:27;4.03;;;3.67;;
8100;SDS011;4093;53.470;9.832;2022-11-20T14:22:57;4.87;;;4.37;;
8100;SDS011;4093;53.470;9.832;2022-11-20T14:25:25;5.63;;;4.70;;
8100;SDS011;4093;53.470;9.832;2022-11-20T14:27:54;4.83;;;4.43;;
8100;SDS011;4093;53.470;9.832;2022-11-20T14:30:25;5.10;;;4.60;;
8100;SDS011;4093;53.470;9.832;2022-11-20T14:32:55;5.20;;;4.70;;
8100;SDS011;4093;53.470;9.832;2022-11-20T14:35:28;6.10;;;5.50;;
8100;SDS011;4093;53.470;9.832;2022-11-20T14:37:58;6.03;;;5.43;;
8100;SDS011;4093;53.470;9.832;2022-11-20T14:40:29;20.23;;;13.63;;
8100;SDS011;4093;53.470;9.832;2022-11-20T14:42:58;24.37;;;15.77;;
8100;SDS011;4093;53.470;9.832;2022-11-20T14:45:26;11.53;;;8.63;;
8100;SDS011;4093;53.470;9.832;2022-11-20T14:47:55;14.37;;;7.67;;
8100;SDS011;4093;53.470;9.832;2022-11-20T14:50:27;15.90;;;9.90;;
8100;SDS011;4093;53.470;9.832;2022-11-20T14:52:56;21.90;;;12.90;;
8100;SDS011;4093;53.470;9.832;2022-11-20T14:55:27;10.00;;;7.07;;
8100;SDS011;4093;53.470;9.832;2022-11-20T14:57:57;6.00;;;5.37;;
8100;SDS011;4093;53.470;9.832;2022-11-20T15:00:27;4.70;;;4.20;;
8100;SDS011;4093;53.470;9.832;2022-11-20T15:02:57;8.57;;;5.30;;
8100;SDS011;4093;53.470;9.832;2022-11-20T15:05:26;5.47;;;4.77;;
8100;SDS011;4093;53.470;9.832;2022-11-20T15:08:12;5.13;;;4.63;;
8100;SDS011;4093;53.470;9.832;2022-11-20T15:10:44;7.77;;;5.70;;
8100;SDS011;4093;53.470;9.832;2022-11-20T15:13:13;6.63;;;5.20;;
8100;SDS011;4093;53.470;9.832;2022-11-20T15:15:44;10.37;;;6.00;;
8100;SDS011;4093;53.470;9.832;2022-11-20T15:18:16;7.70;;;6.17;;
8100;SDS011;4093;53.470;9.832;2022-11-20T15:20:45;7.43;;;6.03;;
8100;SDS011;4093;53.470;9.832;2022-11-20T15:23:14;7.23;;;5.57;;
8100;SDS011;4093;53.470;9.832;2022-11-20T15:25:44;7.63;;;5.83;;
8100;SDS011;4093;53.470;9.832;2022-11-20T15:28:15;7.43;;;6.03;;
8100;SDS011;4093;53.470;9.832;2022-11-20T15:30:45;7.73;;;6.20;;
8100;SDS011;4093;53.470;9.832;2022-11-20T15:33:13;7.37;;;6.37;;
8100;SDS011;4093;53.470;9.832;2022-11-20T15:35:43;7.93;;;6.30;;
8100;SDS011;4093;53.470;9.832;2022-11-20T15:38:11;8.97;;;6.80;;
8100;SDS011;4093;53.470;9.832;2022-11-20T15:40:39;7.13;;;6.30;;
8100;SDS011;4093;53.470;9.832;2022-11-20T15:43:07;8.87;;;7.03;;
8100;SDS011;4093;53.470;9.832;2022-11-20T15:45:40;9.23;;;7.27;;